createdAt,value
2019-03-26T00:00:39.398Z,43.01
2019-03-26T00:01:38.971Z,43.01
2019-03-26T00:02:39.521Z,43.04
2019-03-26T00:03:41.291Z,42.91
2019-03-26T00:04:38.931Z,42.91
2019-03-26T00:05:39.381Z,43.01
2019-03-26T00:06:38.702Z,43.13
2019-03-26T00:07:39.385Z,42.82
2019-03-26T00:08:38.887Z,43.12
2019-03-26T00:09:40.088Z,42.83
2019-03-26T00:10:38.661Z,43.12
2019-03-26T00:11:39.049Z,43.12
2019-03-26T00:12:38.804Z,43.12
2019-03-26T00:13:38.632Z,42.82
2019-03-26T00:14:38.609Z,43.13
2019-03-26T00:15:41.321Z,43.04
2019-03-26T00:16:38.720Z,42.71
2019-03-26T00:17:38.828Z,42.91
2019-03-26T00:18:38.565Z,43.12
2019-03-26T00:19:38.693Z,42.83
2019-03-26T00:20:38.547Z,42.43
2019-03-26T00:21:40.250Z,42.82
2019-03-26T00:22:38.522Z,42.83
2019-03-26T00:23:38.550Z,43.04
2019-03-26T00:24:38.512Z,42.83
2019-03-26T00:25:38.491Z,43.04
2019-03-26T00:26:38.482Z,42.71
2019-03-26T00:27:39.742Z,42.93
2019-03-26T00:28:38.705Z,42.91
2019-03-26T00:29:38.611Z,42.83
2019-03-26T00:30:39.657Z,42.82
2019-03-26T00:31:38.427Z,42.91
2019-03-26T00:32:38.416Z,42.83
2019-03-26T00:33:39.013Z,42.93
2019-03-26T00:34:38.626Z,42.83
2019-03-26T00:35:38.378Z,43.12
2019-03-26T00:36:38.379Z,43.01
2019-03-26T00:37:38.356Z,43.04
2019-03-26T00:38:40.193Z,42.82
2019-03-26T00:39:38.371Z,42.83
2019-03-26T00:40:40.190Z,42.91
2019-03-26T00:41:38.328Z,42.83
2019-03-26T00:42:38.300Z,43.01
2019-03-26T00:43:38.500Z,42.83
2019-03-26T00:44:38.281Z,42.93
2019-03-26T00:45:38.302Z,43.01
2019-03-26T00:46:40.248Z,43.04
2019-03-26T00:47:38.243Z,42.93
2019-03-26T00:48:38.240Z,42.82
2019-03-26T00:49:39.899Z,43.01
2019-03-26T00:50:38.253Z,43.01
2019-03-26T00:51:40.286Z,43.01
2019-03-26T00:52:38.193Z,43.12
2019-03-26T00:53:38.185Z,42.91
2019-03-26T00:54:38.902Z,42.71
2019-03-26T00:55:38.257Z,43.13
2019-03-26T00:56:38.187Z,43.04
2019-03-26T00:57:38.372Z,42.93
2019-03-26T00:58:38.121Z,42.74
2019-03-26T00:59:39.604Z,42.82
2019-03-26T01:00:38.108Z,42.82
2019-03-26T01:01:38.112Z,43.01
2019-03-26T01:02:38.086Z,42.83
2019-03-26T01:03:38.242Z,43.01
2019-03-26T01:04:38.073Z,42.82
2019-03-26T01:05:38.045Z,43.04
2019-03-26T01:06:38.147Z,42.91
2019-03-26T01:07:38.023Z,42.93
2019-03-26T01:08:38.025Z,42.83
2019-03-26T01:09:38.145Z,42.71
2019-03-26T01:10:38.487Z,42.74
2019-03-26T01:11:37.980Z,42.71
2019-03-26T01:12:38.174Z,42.74
2019-03-26T01:13:37.956Z,42.71
2019-03-26T01:14:38.466Z,43.04
2019-03-26T01:15:38.333Z,42.91
2019-03-26T01:16:37.923Z,42.82
2019-03-26T01:17:38.330Z,43.04
2019-03-26T01:18:37.930Z,42.91
2019-03-26T01:19:37.914Z,42.93
2019-03-26T01:20:38.722Z,42.83
2019-03-26T01:21:40.782Z,42.91
2019-03-26T01:22:38.021Z,43.13
2019-03-26T01:23:37.850Z,42.93
2019-03-26T01:24:39.344Z,42.71
2019-03-26T01:25:39.709Z,42.83
2019-03-26T01:26:38.753Z,43.04
2019-03-26T01:27:38.248Z,42.93
2019-03-26T01:28:38.171Z,43.01
2019-03-26T01:29:39.175Z,42.83
2019-03-26T01:30:37.767Z,42.83
2019-03-26T01:31:38.490Z,42.82
2019-03-26T01:32:37.750Z,42.93
2019-03-26T01:33:38.372Z,42.83
2019-03-26T01:34:45.976Z,43.04
2019-03-26T01:35:38.716Z,42.83
2019-03-26T01:36:38.290Z,42.93
2019-03-26T01:37:38.549Z,42.93
2019-03-26T01:38:39.117Z,42.93
2019-03-26T01:39:38.392Z,42.93
2019-03-26T01:40:37.663Z,42.93
2019-03-26T01:41:37.653Z,42.83
2019-03-26T01:42:37.647Z,43.04
2019-03-26T01:43:37.629Z,42.91
2019-03-26T01:44:37.617Z,42.83
2019-03-26T01:45:39.997Z,42.83
2019-03-26T01:46:37.595Z,42.83
2019-03-26T01:47:37.862Z,42.93
2019-03-26T01:48:38.267Z,42.91
2019-03-26T01:49:37.790Z,42.83
2019-03-26T01:50:37.548Z,43.04
2019-03-26T01:51:38.815Z,43.13
2019-03-26T01:52:37.530Z,43.04
2019-03-26T01:53:37.874Z,42.83
2019-03-26T01:54:38.389Z,43.13
2019-03-26T01:55:37.498Z,42.74
2019-03-26T01:56:37.493Z,42.93
2019-03-26T01:57:38.418Z,43.04
2019-03-26T01:58:37.458Z,43.04
2019-03-26T01:59:37.572Z,42.83
2019-03-26T02:00:37.441Z,42.83
2019-03-26T02:01:37.436Z,42.93
2019-03-26T02:02:37.618Z,42.83
2019-03-26T02:03:37.609Z,42.83
2019-03-26T02:04:37.507Z,42.83
2019-03-26T02:05:37.695Z,42.91
2019-03-26T02:06:38.050Z,42.83
2019-03-26T02:07:39.006Z,42.83
2019-03-26T02:08:37.351Z,42.83
2019-03-26T02:09:38.099Z,42.82
2019-03-26T02:10:37.500Z,42.83
2019-03-26T02:11:38.038Z,43.13
2019-03-26T02:12:37.310Z,42.93
2019-03-26T02:13:37.292Z,42.83
2019-03-26T02:14:37.887Z,42.91
2019-03-26T02:15:37.899Z,42.93
2019-03-26T02:16:37.311Z,43.13
2019-03-26T02:17:37.250Z,42.91
2019-03-26T02:18:37.239Z,42.74
2019-03-26T02:19:38.332Z,42.82
2019-03-26T02:20:37.215Z,42.93
2019-03-26T02:21:39.087Z,42.71
2019-03-26T02:22:37.321Z,42.83
2019-03-26T02:23:37.825Z,42.93
2019-03-26T02:24:37.216Z,43.04
2019-03-26T02:25:37.442Z,43.13
2019-03-26T02:26:37.153Z,42.74
2019-03-26T02:27:37.402Z,42.83
2019-03-26T02:28:37.392Z,42.91
2019-03-26T02:29:40.319Z,42.13
2019-03-26T02:30:37.110Z,42.93
2019-03-26T02:31:37.757Z,42.63
2019-03-26T02:32:37.416Z,42.93
2019-03-26T02:33:37.702Z,42.43
2019-03-26T02:34:37.287Z,43.13
2019-03-26T02:35:37.130Z,42.63
2019-03-26T02:36:37.195Z,42.83
2019-03-26T02:37:37.030Z,42.24
2019-03-26T02:38:37.949Z,42.93
2019-03-26T02:39:38.187Z,42.83
2019-03-26T02:40:36.994Z,42.83
2019-03-26T02:41:38.091Z,42.74
2019-03-26T02:42:37.281Z,42.74
2019-03-26T02:43:37.614Z,42.93
2019-03-26T02:44:37.134Z,43.04
2019-03-26T02:45:37.258Z,42.83
2019-03-26T02:46:37.404Z,42.93
2019-03-26T02:47:36.929Z,42.43
2019-03-26T02:48:36.905Z,42.83
2019-03-26T02:49:37.131Z,42.74
2019-03-26T02:50:37.143Z,42.83
2019-03-26T02:51:40.016Z,42.13
2019-03-26T02:52:36.863Z,43.13
2019-03-26T02:53:37.007Z,43.04
2019-03-26T02:54:36.836Z,42.93
2019-03-26T02:55:37.071Z,42.93
2019-03-26T02:56:36.831Z,42.93
2019-03-26T02:57:38.000Z,42.83
2019-03-26T02:58:36.796Z,42.93
2019-03-26T02:59:37.478Z,42.93
2019-03-26T03:00:37.036Z,42.93
2019-03-26T03:01:36.760Z,43.04
2019-03-26T03:02:36.825Z,42.33
2019-03-26T03:03:39.040Z,42.43
2019-03-26T03:04:36.731Z,42.24
2019-03-26T03:05:36.723Z,42.24
2019-03-26T03:06:37.055Z,42.43
2019-03-26T03:07:36.701Z,43.04
2019-03-26T03:08:36.703Z,42.83
2019-03-26T03:09:37.377Z,42.24
2019-03-26T03:10:36.688Z,42.54
2019-03-26T03:11:36.656Z,42.33
2019-03-26T03:12:38.228Z,42.93
2019-03-26T03:13:36.816Z,42.33
2019-03-26T03:14:37.782Z,42.74
2019-03-26T03:15:37.044Z,42.93
2019-03-26T03:16:36.608Z,42.83
2019-03-26T03:17:37.293Z,42.83
2019-03-26T03:18:36.696Z,42.24
2019-03-26T03:19:36.559Z,42.24
2019-03-26T03:20:36.699Z,42.24
2019-03-26T03:21:36.566Z,42.33
2019-03-26T03:22:36.530Z,42.13
2019-03-26T03:23:36.532Z,42.83
2019-03-26T03:24:37.539Z,42.74
2019-03-26T03:25:36.501Z,42.83
2019-03-26T03:26:36.546Z,42.33
2019-03-26T03:27:36.868Z,42.93
2019-03-26T03:28:36.464Z,42.24
2019-03-26T03:29:36.459Z,42.03
2019-03-26T03:30:36.437Z,42.24
2019-03-26T03:31:37.108Z,42.24
2019-03-26T03:32:36.502Z,42.24
2019-03-26T03:33:37.139Z,42.03
2019-03-26T03:34:36.562Z,42.13
2019-03-26T03:35:51.379Z,42.74
2019-03-26T03:36:37.509Z,42.24
2019-03-26T03:37:37.228Z,42.93
2019-03-26T03:38:36.348Z,42.24
2019-03-26T03:39:36.685Z,42.83
2019-03-26T03:40:36.332Z,42.24
2019-03-26T03:41:36.319Z,43.13
2019-03-26T03:42:36.641Z,42.24
2019-03-26T03:43:37.859Z,42.63
2019-03-26T03:44:36.419Z,42.93
2019-03-26T03:45:36.606Z,43.13
2019-03-26T03:46:36.657Z,42.03
2019-03-26T03:47:36.415Z,43.04
2019-03-26T03:48:36.243Z,42.24
2019-03-26T03:49:36.420Z,42.33
2019-03-26T03:50:37.062Z,42.43
2019-03-26T03:51:36.728Z,42.24
2019-03-26T03:52:36.196Z,42.43
2019-03-26T03:53:36.541Z,42.24
2019-03-26T03:54:36.285Z,42.24
2019-03-26T03:55:36.377Z,42.63
2019-03-26T03:56:36.311Z,42.63
2019-03-26T03:57:36.627Z,42.93
2019-03-26T03:58:36.799Z,42.83
2019-03-26T03:59:36.118Z,42.83
2019-03-26T04:00:36.334Z,42.83
2019-03-26T04:01:36.423Z,42.83
2019-03-26T04:02:39.955Z,42.24
2019-03-26T04:03:36.787Z,42.24
2019-03-26T04:04:37.360Z,42.93
2019-03-26T04:05:36.272Z,42.83
2019-03-26T04:06:36.040Z,42.33
2019-03-26T04:07:36.028Z,42.74
2019-03-26T04:08:36.013Z,42.24
2019-03-26T04:09:36.823Z,42.24
2019-03-26T04:10:36.004Z,42.13
2019-03-26T04:11:36.982Z,42.24
2019-03-26T04:12:35.975Z,42.03
2019-03-26T04:13:35.969Z,42.03
2019-03-26T04:14:37.213Z,42.24
2019-03-26T04:15:36.169Z,42.03
2019-03-26T04:16:35.929Z,42.83
2019-03-26T04:17:36.166Z,42.03
2019-03-26T04:18:36.186Z,42.13
2019-03-26T04:19:35.891Z,42.24
2019-03-26T04:20:35.882Z,43.04
2019-03-26T04:21:36.096Z,43.04
2019-03-26T04:22:35.870Z,42.63
2019-03-26T04:23:37.382Z,42.24
2019-03-26T04:24:36.043Z,42.24
2019-03-26T04:25:35.827Z,42.03
2019-03-26T04:26:36.154Z,42.33
2019-03-26T04:27:35.987Z,42.03
2019-03-26T04:28:35.888Z,42.03
2019-03-26T04:29:35.996Z,42.13
2019-03-26T04:30:36.978Z,42.24
2019-03-26T04:31:35.769Z,42.13
2019-03-26T04:32:35.779Z,42.63
2019-03-26T04:33:35.952Z,42.24
2019-03-26T04:34:35.748Z,42.83
2019-03-26T04:35:35.722Z,43.13
2019-03-26T04:36:36.451Z,42.24
2019-03-26T04:37:35.842Z,42.24
2019-03-26T04:38:35.687Z,42.63
2019-03-26T04:39:36.347Z,42.03
2019-03-26T04:40:36.272Z,43.04
2019-03-26T04:41:35.862Z,42.93
2019-03-26T04:42:36.300Z,42.33
2019-03-26T04:43:35.678Z,42.83
2019-03-26T04:44:35.623Z,42.54
2019-03-26T04:45:37.049Z,42.83
2019-03-26T04:46:35.593Z,42.74
2019-03-26T04:47:35.582Z,42.13
2019-03-26T04:48:35.717Z,42.24
2019-03-26T04:49:36.704Z,42.33
2019-03-26T04:50:35.550Z,42.13
2019-03-26T04:51:35.860Z,42.13
2019-03-26T04:52:35.745Z,42.24
2019-03-26T04:53:35.522Z,42.13
2019-03-26T04:54:35.799Z,42.13
2019-03-26T04:55:35.494Z,42.24
2019-03-26T04:56:35.812Z,42.13
2019-03-26T04:57:39.471Z,42.93
2019-03-26T04:58:35.730Z,42.03
2019-03-26T04:59:35.458Z,42.24
2019-03-26T05:00:35.900Z,42.03
2019-03-26T05:01:35.424Z,42.24
2019-03-26T05:02:35.712Z,42.13
2019-03-26T05:03:35.744Z,42.24
2019-03-26T05:04:36.000Z,42.13
2019-03-26T05:05:35.381Z,42.13
2019-03-26T05:06:38.236Z,42.13
2019-03-26T05:07:35.637Z,42.13
2019-03-26T05:08:35.350Z,42.13
2019-03-26T05:09:35.596Z,42.13
2019-03-26T05:10:35.330Z,42.54
2019-03-26T05:11:35.321Z,42.24
2019-03-26T05:12:35.702Z,42.03
2019-03-26T05:13:35.299Z,42.74
2019-03-26T05:14:35.597Z,42.13
2019-03-26T05:15:35.670Z,42.13
2019-03-26T05:16:35.260Z,42.03
2019-03-26T05:17:35.250Z,42.13
2019-03-26T05:18:35.454Z,42.63
2019-03-26T05:19:35.229Z,42.74
2019-03-26T05:20:35.219Z,42.13
2019-03-26T05:21:35.730Z,42.33
2019-03-26T05:22:35.191Z,42.03
2019-03-26T05:23:35.186Z,42.02
2019-03-26T05:24:37.034Z,42.63
2019-03-26T05:25:35.838Z,42.13
2019-03-26T05:26:35.145Z,42.93
2019-03-26T05:27:45.147Z,42.24
2019-03-26T05:28:36.131Z,42.74
2019-03-26T05:29:35.423Z,42.03
2019-03-26T05:30:35.434Z,42.24
2019-03-26T05:31:35.412Z,42.24
2019-03-26T05:32:35.528Z,42.93
2019-03-26T05:33:35.923Z,42.33
2019-03-26T05:34:35.067Z,42.13
2019-03-26T05:35:35.048Z,42.03
2019-03-26T05:36:35.040Z,42.83
2019-03-26T05:37:35.268Z,42.74
2019-03-26T05:38:35.217Z,42.33
2019-03-26T05:39:35.262Z,42.03
2019-03-26T05:40:35.242Z,42.13
2019-03-26T05:41:34.987Z,42.03
2019-03-26T05:42:35.216Z,42.13
2019-03-26T05:43:34.961Z,42.03
2019-03-26T05:44:34.953Z,42.13
2019-03-26T05:45:35.486Z,42.33
2019-03-26T05:46:35.266Z,42.24
2019-03-26T05:47:34.996Z,42.13
2019-03-26T05:48:35.029Z,42.24
2019-03-26T05:49:36.192Z,42.24
2019-03-26T05:50:34.891Z,42.24
2019-03-26T05:51:35.192Z,42.93
2019-03-26T05:52:34.873Z,42.13
2019-03-26T05:53:34.853Z,42.13
2019-03-26T05:54:34.841Z,42.24
2019-03-26T05:55:35.071Z,42.13
2019-03-26T05:56:34.828Z,42.13
2019-03-26T05:57:34.839Z,42.03
2019-03-26T05:58:35.007Z,42.03
2019-03-26T05:59:34.802Z,42.33
2019-03-26T06:00:35.020Z,42.24
2019-03-26T06:01:34.777Z,42.03
2019-03-26T06:02:35.020Z,42.13
2019-03-26T06:03:35.131Z,42.24
2019-03-26T06:04:35.356Z,42.43
2019-03-26T06:05:35.236Z,42.24
2019-03-26T06:06:36.152Z,42.13
2019-03-26T06:07:35.945Z,42.13
2019-03-26T06:08:34.701Z,42.13
2019-03-26T06:09:34.811Z,42.24
2019-03-26T06:10:34.883Z,42.21
2019-03-26T06:11:34.779Z,42.13
2019-03-26T06:12:35.454Z,42.13
2019-03-26T06:13:35.036Z,42.43
2019-03-26T06:14:34.850Z,42.93
2019-03-26T06:15:34.914Z,42.74
2019-03-26T06:16:38.591Z,42.82
2019-03-26T06:17:34.597Z,42.63
2019-03-26T06:18:34.580Z,42.74
2019-03-26T06:19:35.130Z,42.33
2019-03-26T06:20:36.327Z,42.63
2019-03-26T06:21:35.082Z,42.33
2019-03-26T06:22:34.546Z,42.93
2019-03-26T06:23:34.962Z,42.54
2019-03-26T06:24:35.650Z,42.83
2019-03-26T06:25:35.698Z,42.74
2019-03-26T06:26:35.455Z,42.93
2019-03-26T06:27:35.506Z,42.63
2019-03-26T06:28:36.674Z,42.83
2019-03-26T06:29:35.663Z,42.63
2019-03-26T06:30:37.912Z,42.63
2019-03-26T06:31:35.734Z,42.63
2019-03-26T06:32:35.696Z,42.83
2019-03-26T06:33:37.620Z,42.63
2019-03-26T06:34:34.406Z,42.33
2019-03-26T06:35:37.926Z,42.63
2019-03-26T06:36:36.288Z,42.93
2019-03-26T06:37:35.646Z,42.33
2019-03-26T06:38:34.527Z,42.74
2019-03-26T06:39:39.165Z,42.63
2019-03-26T06:40:36.514Z,42.63
2019-03-26T06:41:34.322Z,42.63
2019-03-26T06:42:35.938Z,42.63
2019-03-26T06:43:36.891Z,43.04
2019-03-26T06:44:37.659Z,42.63
2019-03-26T06:45:39.164Z,42.63
2019-03-26T06:46:35.840Z,42.83
2019-03-26T06:47:34.641Z,42.74
2019-03-26T06:48:35.920Z,42.54
2019-03-26T06:49:35.421Z,42.91
2019-03-26T06:50:35.663Z,42.11
2019-03-26T06:51:35.242Z,42.83
2019-03-26T06:52:34.200Z,42.83
2019-03-26T06:53:36.688Z,42.02
2019-03-26T06:54:36.577Z,42.93
2019-03-26T06:55:37.038Z,43.12
2019-03-26T06:56:40.269Z,42.71
2019-03-26T06:58:35.480Z,42.32
2019-03-26T06:59:35.228Z,43.12
2019-03-26T07:00:34.820Z,42.91
2019-03-26T07:01:34.103Z,42.74
2019-03-26T07:02:34.129Z,43.13
2019-03-26T07:03:34.469Z,42.82
2019-03-26T07:04:34.073Z,42.52
2019-03-26T07:05:34.057Z,42.32
2019-03-26T07:06:34.044Z,43.12
2019-03-26T07:07:34.047Z,43.32
2019-03-26T07:08:34.298Z,43.41
2019-03-26T07:09:34.161Z,42.91
2019-03-26T07:10:34.012Z,43.12
2019-03-26T07:11:33.995Z,43.62
2019-03-26T07:12:34.163Z,43.62
2019-03-26T07:13:33.969Z,43.71
2019-03-26T07:14:33.986Z,43.62
2019-03-26T07:15:33.947Z,43.51
2019-03-26T07:16:34.023Z,43.71
2019-03-26T07:17:33.931Z,44.01
2019-03-26T07:18:34.084Z,43.62
2019-03-26T07:19:33.922Z,44.12
2019-03-26T07:20:36.675Z,44.21
2019-03-26T07:21:34.922Z,44.12
2019-03-26T07:22:34.132Z,43.82
2019-03-26T07:23:33.866Z,44.32
2019-03-26T07:24:33.972Z,44.01
2019-03-26T07:25:34.546Z,44.21
2019-03-26T07:26:33.880Z,44.32
2019-03-26T07:27:33.817Z,43.91
2019-03-26T07:28:33.806Z,43.91
2019-03-26T07:29:33.794Z,43.82
2019-03-26T07:30:33.780Z,43.71
2019-03-26T07:31:33.991Z,44.21
2019-03-26T07:32:34.071Z,44.12
2019-03-26T07:33:33.753Z,44.32
2019-03-26T07:34:33.743Z,43.91
2019-03-26T07:35:33.729Z,44.12
2019-03-26T07:36:34.217Z,43.62
2019-03-26T07:37:44.550Z,44.42
2019-03-26T07:38:34.759Z,44.32
2019-03-26T07:39:33.701Z,43.82
2019-03-26T07:40:33.848Z,44.42
2019-03-26T07:41:33.675Z,43.91
2019-03-26T07:42:34.732Z,44.12
2019-03-26T07:43:33.640Z,44.51
2019-03-26T07:44:33.771Z,44.21
2019-03-26T07:45:33.615Z,44.12
2019-03-26T07:46:33.607Z,44.32
2019-03-26T07:47:33.598Z,43.91
2019-03-26T07:48:34.751Z,43.91
2019-03-26T07:49:33.575Z,44.42
2019-03-26T07:50:34.061Z,42.11
2019-03-26T07:51:33.572Z,43.51
2019-03-26T07:52:33.623Z,44.12
2019-03-26T07:53:35.425Z,43.71
2019-03-26T07:54:33.515Z,44.21
2019-03-26T07:55:33.657Z,43.41
2019-03-26T07:56:33.520Z,44.39
2019-03-26T07:57:33.745Z,44.12
2019-03-26T07:58:33.511Z,44.09
2019-03-26T07:59:33.623Z,43.79
2019-03-26T08:00:33.454Z,43.91
2019-03-26T08:01:33.729Z,43.90
2019-03-26T08:02:36.430Z,43.91
2019-03-26T08:03:33.524Z,43.21
2019-03-26T08:04:34.255Z,43.59
2019-03-26T08:05:33.392Z,44.29
2019-03-26T08:06:33.385Z,44.09
2019-03-26T08:07:34.836Z,44.39
2019-03-26T08:08:33.385Z,43.59
2019-03-26T08:09:35.361Z,44.49
2019-03-26T08:10:33.584Z,43.49
2019-03-26T08:11:33.586Z,43.99
2019-03-26T08:12:33.621Z,43.40
2019-03-26T08:13:33.671Z,44.70
2019-03-26T08:14:33.534Z,44.49
2019-03-26T08:15:33.283Z,44.49
2019-03-26T08:16:33.274Z,44.49
2019-03-26T08:17:33.308Z,44.92
2019-03-26T08:18:33.266Z,44.89
2019-03-26T08:19:33.235Z,44.20
2019-03-26T08:20:33.777Z,42.69
2019-03-26T08:21:33.213Z,42.21
2019-03-26T08:22:33.208Z,40.71
2019-03-26T08:23:33.198Z,40.81
2019-03-26T08:24:34.353Z,40.52
2019-03-26T08:25:33.963Z,38.73
2019-03-26T08:26:33.413Z,38.63
2019-03-26T08:27:33.395Z,37.83
2019-03-26T08:28:33.182Z,36.63
2019-03-26T08:29:33.131Z,37.63
2019-03-26T08:30:33.192Z,37.73
2019-03-26T08:31:37.083Z,37.83
2019-03-26T08:32:36.852Z,37.92
2019-03-26T08:33:33.094Z,36.83
2019-03-26T08:34:33.095Z,36.23
2019-03-26T08:35:33.277Z,36.43
2019-03-26T08:36:33.162Z,36.33
2019-03-26T08:37:34.030Z,36.13
2019-03-26T08:38:33.754Z,38.13
2019-03-26T08:39:34.110Z,38.51
2019-03-26T08:40:33.290Z,40.11
2019-03-26T08:41:33.080Z,37.03
2019-03-26T08:42:33.396Z,37.73
2019-03-26T08:43:41.619Z,37.23
2019-03-26T08:44:34.433Z,36.53
2019-03-26T08:45:32.954Z,36.63
2019-03-26T08:46:32.948Z,36.13
2019-03-26T08:47:33.105Z,35.73
2019-03-26T08:48:33.350Z,35.43
2019-03-26T08:49:49.450Z,35.03
2019-03-26T08:50:34.384Z,35.23
2019-03-26T08:51:32.886Z,35.03
2019-03-26T08:52:32.874Z,34.33
2019-03-26T08:53:34.001Z,33.04
2019-03-26T08:54:33.323Z,33.94
2019-03-26T08:55:32.874Z,33.04
2019-03-26T08:56:32.993Z,33.84
2019-03-26T08:57:33.384Z,33.44
2019-03-26T08:58:32.845Z,33.04
2019-03-26T08:59:32.883Z,33.04
2019-03-26T09:00:33.451Z,33.04
2019-03-26T09:01:34.132Z,31.74
2019-03-26T09:02:32.768Z,33.14
2019-03-26T09:03:33.267Z,33.04
2019-03-26T09:04:32.742Z,33.54
2019-03-26T09:05:32.733Z,32.84
2019-03-26T09:06:32.715Z,33.04
2019-03-26T09:07:32.742Z,33.14
2019-03-26T09:08:32.844Z,33.64
2019-03-26T09:09:32.854Z,33.64
2019-03-26T09:10:32.670Z,33.54
2019-03-26T09:11:34.425Z,32.84
2019-03-26T09:12:32.668Z,32.44
2019-03-26T09:13:34.269Z,32.54
2019-03-26T09:14:32.627Z,32.84
2019-03-26T09:15:33.418Z,32.74
2019-03-26T09:16:32.952Z,33.04
2019-03-26T09:17:32.596Z,33.34
2019-03-26T09:18:32.583Z,33.44
2019-03-26T09:19:36.548Z,32.84
2019-03-26T09:20:33.748Z,32.54
2019-03-26T09:21:32.834Z,31.74
2019-03-26T09:22:32.807Z,32.84
2019-03-26T09:23:32.537Z,31.84
2019-03-26T09:24:33.664Z,32.54
2019-03-26T09:25:32.573Z,32.44
2019-03-26T09:26:32.505Z,32.54
2019-03-26T09:27:35.314Z,32.24
2019-03-26T09:28:32.524Z,32.24
2019-03-26T09:29:32.642Z,31.94
2019-03-26T09:30:32.550Z,32.74
2019-03-26T09:31:34.196Z,33.04
2019-03-26T09:32:32.435Z,31.54
2019-03-26T09:33:32.425Z,31.74
2019-03-26T09:34:32.622Z,31.74
2019-03-26T09:35:35.046Z,31.84
2019-03-26T09:36:32.738Z,32.54
2019-03-26T09:37:32.464Z,33.04
2019-03-26T09:38:38.757Z,31.14
2019-03-26T09:39:33.366Z,31.64
2019-03-26T09:40:33.955Z,31.34
2019-03-26T09:41:32.336Z,30.85
2019-03-26T09:42:32.329Z,31.35
2019-03-26T09:43:32.363Z,31.56
2019-03-26T09:44:32.422Z,31.15
2019-03-26T09:45:32.929Z,31.96
2019-03-26T09:46:33.287Z,30.85
2019-03-26T09:47:34.319Z,31.26
2019-03-26T09:48:32.257Z,31.26
2019-03-26T09:49:32.313Z,32.56
2019-03-26T09:50:32.608Z,32.44
2019-03-26T09:51:32.226Z,31.96
2019-03-26T09:52:32.318Z,31.46
2019-03-26T09:53:32.198Z,31.85
2019-03-26T09:54:32.193Z,31.96
2019-03-26T09:55:32.226Z,32.35
2019-03-26T09:56:32.289Z,31.85
2019-03-26T09:57:32.166Z,32.26
2019-03-26T09:58:32.868Z,31.65
2019-03-26T09:59:33.551Z,30.65
2019-03-26T10:00:32.288Z,30.55
2019-03-26T10:01:36.685Z,31.56
2019-03-26T10:02:34.770Z,30.55
2019-03-26T10:03:32.090Z,31.35
2019-03-26T10:04:32.573Z,31.65
2019-03-26T10:05:32.115Z,31.35
2019-03-26T10:06:32.060Z,30.55
2019-03-26T10:07:35.468Z,32.26
2019-03-26T10:08:32.067Z,31.35
2019-03-26T10:09:32.435Z,32.26
2019-03-26T10:10:32.314Z,32.06
2019-03-26T10:11:32.010Z,32.56
2019-03-26T10:12:32.007Z,32.15
2019-03-26T10:13:32.349Z,31.56
2019-03-26T10:14:31.967Z,32.06
2019-03-26T10:15:33.488Z,31.05
2019-03-26T10:16:32.846Z,31.76
2019-03-26T10:17:31.935Z,31.56
2019-03-26T10:18:31.940Z,31.35
2019-03-26T10:19:32.559Z,31.15
2019-03-26T10:20:31.906Z,30.95
2019-03-26T10:21:31.901Z,31.15
2019-03-26T10:22:32.139Z,31.96
2019-03-26T10:23:31.868Z,32.06
2019-03-26T10:24:32.110Z,31.05
2019-03-26T10:25:32.663Z,31.56
2019-03-26T10:26:32.124Z,32.26
2019-03-26T10:27:34.983Z,31.35
2019-03-26T10:28:32.690Z,31.35
2019-03-26T10:29:33.614Z,31.65
2019-03-26T10:30:36.703Z,30.55
2019-03-26T10:31:32.062Z,32.26
2019-03-26T10:32:31.945Z,31.05
2019-03-26T10:33:31.844Z,32.26
2019-03-26T10:34:32.514Z,32.06
2019-03-26T10:35:31.775Z,30.85
2019-03-26T10:36:32.076Z,30.95
2019-03-26T10:37:31.716Z,31.46
2019-03-26T10:38:31.707Z,31.15
2019-03-26T10:39:31.795Z,30.85
2019-03-26T10:40:31.699Z,30.45
2019-03-26T10:41:31.982Z,31.46
2019-03-26T10:42:33.463Z,30.15
2019-03-26T10:43:31.704Z,30.65
2019-03-26T10:44:31.736Z,31.56
2019-03-26T10:45:32.012Z,30.87
2019-03-26T10:46:32.124Z,32.35
2019-03-26T10:47:31.771Z,31.35
2019-03-26T10:48:31.928Z,31.05
2019-03-26T10:49:31.768Z,31.35
2019-03-26T10:50:31.594Z,32.44
2019-03-26T10:51:35.292Z,33.24
2019-03-26T10:52:34.242Z,33.54
2019-03-26T10:53:32.943Z,33.54
2019-03-26T10:54:34.723Z,34.24
2019-03-26T10:55:32.219Z,33.04
2019-03-26T10:56:32.747Z,32.24
2019-03-26T10:57:31.623Z,32.34
2019-03-26T10:58:31.553Z,33.74
2019-03-26T10:59:31.496Z,32.44
2019-03-26T11:00:31.550Z,32.74
2019-03-26T11:01:31.926Z,31.64
2019-03-26T11:02:31.443Z,33.04
2019-03-26T11:03:31.530Z,33.64
2019-03-26T11:04:31.858Z,32.44
2019-03-26T11:05:31.434Z,32.14
2019-03-26T11:06:31.397Z,32.34
2019-03-26T11:07:31.396Z,32.74
2019-03-26T11:08:31.528Z,32.84
2019-03-26T11:09:32.022Z,32.54
2019-03-26T11:10:32.509Z,32.34
2019-03-26T11:11:31.870Z,31.84
2019-03-26T11:12:35.733Z,32.24
2019-03-26T11:13:32.316Z,31.64
2019-03-26T11:14:31.913Z,30.54
2019-03-26T11:15:31.297Z,31.26
2019-03-26T11:16:31.282Z,31.56
2019-03-26T11:17:31.508Z,31.76
2019-03-26T11:18:32.369Z,30.85
2019-03-26T11:19:32.423Z,30.95
2019-03-26T11:20:31.269Z,32.06
2019-03-26T11:21:31.558Z,31.15
2019-03-26T11:22:31.381Z,31.46
2019-03-26T11:23:31.773Z,32.46
2019-03-26T11:24:31.198Z,30.95
2019-03-26T11:25:31.204Z,31.15
2019-03-26T11:26:33.586Z,31.35
2019-03-26T11:27:32.681Z,30.85
2019-03-26T11:28:32.082Z,31.65
2019-03-26T11:29:31.243Z,30.35
2019-03-26T11:30:31.134Z,30.45
2019-03-26T11:31:32.929Z,30.45
2019-03-26T11:32:32.108Z,30.35
2019-03-26T11:33:31.844Z,30.35
2019-03-26T11:34:31.369Z,31.07
2019-03-26T11:35:31.314Z,31.05
2019-03-26T11:36:31.876Z,31.65
2019-03-26T11:37:31.731Z,31.15
2019-03-26T11:38:32.718Z,30.95
2019-03-26T11:39:33.149Z,31.26
2019-03-26T11:40:31.019Z,30.84
2019-03-26T11:41:31.590Z,31.35
2019-03-26T11:42:31.967Z,31.56
2019-03-26T11:43:31.318Z,30.05
2019-03-26T11:44:32.467Z,31.26
2019-03-26T11:45:31.626Z,31.15
2019-03-26T11:46:31.984Z,30.76
2019-03-26T11:47:31.102Z,30.85
2019-03-26T11:48:30.936Z,30.95
2019-03-26T11:49:31.284Z,31.46
2019-03-26T11:50:31.073Z,31.65
2019-03-26T11:51:30.963Z,30.76
2019-03-26T11:52:32.435Z,31.65
2019-03-26T11:53:31.350Z,31.26
2019-03-26T11:54:30.862Z,31.46
2019-03-26T11:55:31.220Z,31.65
2019-03-26T11:56:30.856Z,30.85
2019-03-26T11:57:30.830Z,30.05
2019-03-26T11:58:31.517Z,30.65
2019-03-26T11:59:30.814Z,30.65
2019-03-26T12:00:32.570Z,31.46
2019-03-26T12:01:30.795Z,31.46
2019-03-26T12:02:31.168Z,31.05
2019-03-26T12:03:30.809Z,30.45
2019-03-26T12:04:31.054Z,30.45
2019-03-26T12:05:30.751Z,30.15
2019-03-26T12:06:31.002Z,30.35
2019-03-26T12:07:30.726Z,30.35
2019-03-26T12:08:32.601Z,29.95
2019-03-26T12:09:31.569Z,30.55
2019-03-26T12:10:30.954Z,30.15
2019-03-26T12:11:30.680Z,30.05
2019-03-26T12:12:30.893Z,30.45
2019-03-26T12:13:30.774Z,30.26
2019-03-26T12:14:31.289Z,30.76
2019-03-26T12:15:30.631Z,30.55
2019-03-26T12:16:31.653Z,30.26
2019-03-26T12:17:30.609Z,29.95
2019-03-26T12:18:30.686Z,29.95
2019-03-26T12:19:30.598Z,30.55
2019-03-26T12:20:30.984Z,29.95
2019-03-26T12:21:32.221Z,30.26
2019-03-26T12:22:33.675Z,30.55
2019-03-26T12:23:31.561Z,30.45
2019-03-26T12:24:30.704Z,30.05
2019-03-26T12:25:30.689Z,30.65
2019-03-26T12:26:31.336Z,30.35
2019-03-26T12:27:30.507Z,30.85
2019-03-26T12:28:30.536Z,31.56
2019-03-26T12:29:30.481Z,30.94
2019-03-26T12:30:30.470Z,30.84
2019-03-26T12:31:32.023Z,31.24
2019-03-26T12:32:31.673Z,29.34
2019-03-26T12:33:31.389Z,30.45
2019-03-26T12:34:30.493Z,30.45
2019-03-26T12:35:30.418Z,30.55
2019-03-26T12:36:39.794Z,30.45
2019-03-26T12:37:31.398Z,30.35
2019-03-26T12:38:30.911Z,30.55
2019-03-26T12:39:30.377Z,30.15
2019-03-26T12:40:30.409Z,29.55
2019-03-26T12:41:31.478Z,30.15
2019-03-26T12:42:30.343Z,30.65
2019-03-26T12:43:30.359Z,30.05
2019-03-26T12:44:30.331Z,30.55
2019-03-26T12:45:30.303Z,30.15
2019-03-26T12:46:31.454Z,30.05
2019-03-26T12:47:30.287Z,29.75
2019-03-26T12:48:30.273Z,29.85
2019-03-26T12:49:30.264Z,28.95
2019-03-26T12:50:32.275Z,30.05
2019-03-26T12:51:30.784Z,29.95
2019-03-26T12:52:33.133Z,29.66
2019-03-26T12:53:30.274Z,30.15